sensor_id;sensor_type;location;lat;lon;timestamp;pressure;altitude;pressure_sealevel;temperature;humidity
11440;BME280;5776;51.814;4.510;2023-03-12T00:00:35;101147.44;;;4.42;93.92
11440;BME280;5776;51.814;4.510;2023-03-12T00:03:03;101136.91;;;4.41;93.90
11440;BME280;5776;51.814;4.510;2023-03-12T00:05:29;101133.41;;;4.40;93.14
11440;BME280;5776;51.814;4.510;2023-03-12T00:07:55;101122.41;;;4.42;93.84
11440;BME280;5776;51.814;4.510;2023-03-12T00:10:25;101117.25;;;4.40;93.37
11440;BME280;5776;51.814;4.510;2023-03-12T00:12:51;101115.38;;;4.41;93.79
11440;BME280;5776;51.814;4.510;2023-03-12T00:15:17;101112.38;;;4.37;92.83
11440;BME280;5776;51.814;4.510;2023-03-12T00:17:44;101108.88;;;4.37;92.39
11440;BME280;5776;51.814;4.510;2023-03-12T00:20:10;101107.81;;;4.38;92.79
11440;BME280;5776;51.814;4.510;2023-03-12T00:22:36;101108.38;;;4.40;93.56
11440;BME280;5776;51.814;4.510;2023-03-12T00:25:04;101105.34;;;4.36;92.83
11440;BME280;5776;51.814;4.510;2023-03-12T00:27:31;101111.31;;;4.38;92.98
11440;BME280;5776;51.814;4.510;2023-03-12T00:29:56;101107.00;;;4.37;92.97
11440;BME280;5776;51.814;4.510;2023-03-12T00:32:22;101103.22;;;4.38;94.10
11440;BME280;5776;51.814;4.510;2023-03-12T00:34:53;101099.16;;;4.36;93.50
11440;BME280;5776;51.814;4.510;2023-03-12T00:37:20;101103.22;;;4.38;94.46
11440;BME280;5776;51.814;4.510;2023-03-12T00:39:46;101102.66;;;4.36;94.01
11440;BME280;5776;51.814;4.510;2023-03-12T00:42:13;101098.13;;;4.37;93.59
11440;BME280;5776;51.814;4.510;2023-03-12T00:44:39;101096.22;;;4.37;93.96
11440;BME280;5776;51.814;4.510;2023-03-12T00:47:05;101097.28;;;4.36;94.12
11440;BME280;5776;51.814;4.510;2023-03-12T00:49:31;101084.91;;;4.35;93.94
11440;BME280;5776;51.814;4.510;2023-03-12T00:51:57;101083.28;;;4.34;93.22
11440;BME280;5776;51.814;4.510;2023-03-12T00:54:23;101079.50;;;4.35;94.43
11440;BME280;5776;51.814;4.510;2023-03-12T00:56:49;101079.50;;;4.35;94.15
11440;BME280;5776;51.814;4.510;2023-03-12T00:59:15;101076.81;;;4.35;94.26
11440;BME280;5776;51.814;4.510;2023-03-12T01:01:41;101082.19;;;4.35;93.72
11440;BME280;5776;51.814;4.510;2023-03-12T01:04:08;101074.63;;;4.32;93.62
11440;BME280;5776;51.814;4.510;2023-03-12T01:06:34;101078.44;;;4.36;94.40
11440;BME280;5776;51.814;4.510;2023-03-12T01:09:02;101080.91;;;4.38;94.36
11440;BME280;5776;51.814;4.510;2023-03-12T01:11:31;101075.75;;;4.36;93.28
11440;BME280;5776;51.814;4.510;2023-03-12T01:13:58;101071.53;;;4.40;94.10
11440;BME280;5776;51.814;4.510;2023-03-12T01:16:28;101072.03;;;4.37;94.31
11440;BME280;5776;51.814;4.510;2023-03-12T01:18:56;101069.66;;;4.41;93.63
11440;BME280;5776;51.814;4.510;2023-03-12T01:21:22;101066.66;;;4.37;94.46
11440;BME280;5776;51.814;4.510;2023-03-12T01:23:48;101064.53;;;4.39;95.06
11440;BME280;5776;51.814;4.510;2023-03-12T01:26:14;101058.81;;;4.36;94.36
11440;BME280;5776;51.814;4.510;2023-03-12T01:28:40;101059.88;;;4.35;93.98
11440;BME280;5776;51.814;4.510;2023-03-12T01:31:07;101051.00;;;4.34;93.38
11440;BME280;5776;51.814;4.510;2023-03-12T01:33:34;101051.22;;;4.32;94.55
11440;BME280;5776;51.814;4.510;2023-03-12T01:36:00;101044.22;;;4.31;94.63
11440;BME280;5776;51.814;4.510;2023-03-12T01:38:26;101036.16;;;4.31;93.90
11440;BME280;5776;51.814;4.510;2023-03-12T01:40:51;101039.09;;;4.30;93.89
11440;BME280;5776;51.814;4.510;2023-03-12T01:48:40;101027.25;;;4.31;95.00
11440;BME280;5776;51.814;4.510;2023-03-12T01:51:09;101020.50;;;4.28;94.46
11440;BME280;5776;51.814;4.510;2023-03-12T01:53:37;101034.03;;;4.33;94.81
11440;BME280;5776;51.814;4.510;2023-03-12T01:56:05;101033.72;;;4.30;93.34
11440;BME280;5776;51.814;4.510;2023-03-12T01:58:35;101035.34;;;4.31;94.76
11440;BME280;5776;51.814;4.510;2023-03-12T02:01:03;101024.94;;;4.35;94.54
11440;BME280;5776;51.814;4.510;2023-03-12T02:03:29;101025.41;;;4.31;93.81
11440;BME280;5776;51.814;4.510;2023-03-12T02:06:06;101019.69;;;4.28;94.13
11440;BME280;5776;51.814;4.510;2023-03-12T02:08:40;101014.31;;;4.28;94.05
11440;BME280;5776;51.814;4.510;2023-03-12T02:11:06;100992.78;;;4.28;93.47
11440;BME280;5776;51.814;4.510;2023-03-12T02:13:32;100992.00;;;4.27;93.50
11440;BME280;5776;51.814;4.510;2023-03-12T02:15:58;100988.22;;;4.28;93.36
11440;BME280;5776;51.814;4.510;2023-03-12T02:18:26;100980.41;;;4.27;93.71
11440;BME280;5776;51.814;4.510;2023-03-12T02:23:46;100974.47;;;4.25;94.43
11440;BME280;5776;51.814;4.510;2023-03-12T02:26:17;100967.78;;;4.27;94.84
11440;BME280;5776;51.814;4.510;2023-03-12T02:28:44;100963.22;;;4.28;95.40
11440;BME280;5776;51.814;4.510;2023-03-12T02:31:13;100959.38;;;4.24;94.33
11440;BME280;5776;51.814;4.510;2023-03-12T02:33:41;100960.22;;;4.24;93.61
11440;BME280;5776;51.814;4.510;2023-03-12T02:36:07;100966.41;;;4.25;93.88
11440;BME280;5776;51.814;4.510;2023-03-12T02:38:38;100973.66;;;4.24;93.87
11440;BME280;5776;51.814;4.510;2023-03-12T02:41:38;100975.78;;;4.22;93.89
11440;BME280;5776;51.814;4.510;2023-03-12T02:44:14;100967.44;;;4.24;93.28
11440;BME280;5776;51.814;4.510;2023-03-12T02:46:44;100966.88;;;4.22;93.41
11440;BME280;5776;51.814;4.510;2023-03-12T02:49:11;100956.69;;;4.24;93.85
11440;BME280;5776;51.814;4.510;2023-03-12T02:51:39;100951.81;;;4.21;93.91
11440;BME280;5776;51.814;4.510;2023-03-12T02:54:06;100958.81;;;4.22;93.71
11440;BME280;5776;51.814;4.510;2023-03-12T02:56:32;100963.13;;;4.23;95.30
11440;BME280;5776;51.814;4.510;2023-03-12T02:58:58;100968.19;;;4.19;93.72
11440;BME280;5776;51.814;4.510;2023-03-12T03:01:24;100953.19;;;4.23;95.43
11440;BME280;5776;51.814;4.510;2023-03-12T03:03:50;100954.00;;;4.24;94.61
11440;BME280;5776;51.814;4.510;2023-03-12T03:06:16;100943.25;;;4.24;94.24
11440;BME280;5776;51.814;4.510;2023-03-12T03:08:43;100941.03;;;4.21;94.94
11440;BME280;5776;51.814;4.510;2023-03-12T03:11:09;100925.19;;;4.19;95.15
11440;BME280;5776;51.814;4.510;2023-03-12T03:13:35;100911.97;;;4.18;94.54
11440;BME280;5776;51.814;4.510;2023-03-12T03:16:01;100914.66;;;4.18;95.20
11440;BME280;5776;51.814;4.510;2023-03-12T03:18:29;100914.66;;;4.18;95.24
11440;BME280;5776;51.814;4.510;2023-03-12T03:20:57;100902.28;;;4.17;95.60
11440;BME280;5776;51.814;4.510;2023-03-12T03:23:24;100899.59;;;4.17;95.37
11440;BME280;5776;51.814;4.510;2023-03-12T03:25:50;100906.00;;;4.16;96.43
11440;BME280;5776;51.814;4.510;2023-03-12T03:28:18;100904.97;;;4.17;95.66
11440;BME280;5776;51.814;4.510;2023-03-12T03:30:45;100888.09;;;4.21;96.86
11440;BME280;5776;51.814;4.510;2023-03-12T03:33:11;100882.16;;;4.19;96.21
11440;BME280;5776;51.814;4.510;2023-03-12T03:35:37;100876.44;;;4.16;96.09
11440;BME280;5776;51.814;4.510;2023-03-12T03:38:02;100876.72;;;4.14;95.70
11440;BME280;5776;51.814;4.510;2023-03-12T03:40:29;100874.81;;;4.15;96.30
11440;BME280;5776;51.814;4.510;2023-03-12T03:42:55;100872.13;;;4.15;96.16
11440;BME280;5776;51.814;4.510;2023-03-12T03:45:21;100869.69;;;4.13;97.20
11440;BME280;5776;51.814;4.510;2023-03-12T03:47:47;100875.06;;;4.13;96.77
11440;BME280;5776;51.814;4.510;2023-03-12T03:50:13;100878.09;;;4.17;97.18
11440;BME280;5776;51.814;4.510;2023-03-12T03:52:39;100878.91;;;4.17;97.53
11440;BME280;5776;51.814;4.510;2023-03-12T03:55:04;100876.22;;;4.17;96.86
11440;BME280;5776;51.814;4.510;2023-03-12T03:57:30;100875.94;;;4.19;97.15
11440;BME280;5776;51.814;4.510;2023-03-12T03:59:56;100878.91;;;4.17;98.54
11440;BME280;5776;51.814;4.510;2023-03-12T04:02:26;100878.09;;;4.17;97.71
11440;BME280;5776;51.814;4.510;2023-03-12T04:04:56;100884.19;;;4.12;98.98
11440;BME280;5776;51.814;4.510;2023-03-12T04:07:22;100884.44;;;4.10;98.71
11440;BME280;5776;51.814;4.510;2023-03-12T04:09:48;100881.25;;;4.14;99.31
11440;BME280;5776;51.814;4.510;2023-03-12T04:12:16;100879.03;;;4.10;100.00
11440;BME280;5776;51.814;4.510;2023-03-12T04:14:42;100889.81;;;4.10;100.00
11440;BME280;5776;51.814;4.510;2023-03-12T04:17:08;100879.03;;;4.10;100.00
11440;BME280;5776;51.814;4.510;2023-03-12T04:19:34;100877.09;;;4.06;100.00
11440;BME280;5776;51.814;4.510;2023-03-12T04:22:00;100862.84;;;4.05;100.00
11440;BME280;5776;51.814;4.510;2023-03-12T04:24:26;100839.47;;;4.06;100.00
11440;BME280;5776;51.814;4.510;2023-03-12T04:26:52;100831.16;;;4.07;100.00
11440;BME280;5776;51.814;4.510;2023-03-12T04:29:18;100831.16;;;4.07;100.00
11440;BME280;5776;51.814;4.510;2023-03-12T04:31:44;100827.91;;;4.05;100.00
11440;BME280;5776;51.814;4.510;2023-03-12T04:34:11;100824.97;;;4.07;100.00
11440;BME280;5776;51.814;4.510;2023-03-12T04:36:37;100820.41;;;4.07;100.00
11440;BME280;5776;51.814;4.510;2023-03-12T04:39:03;100801.03;;;4.05;100.00
11440;BME280;5776;51.814;4.510;2023-03-12T04:41:35;100795.66;;;4.05;100.00
11440;BME280;5776;51.814;4.510;2023-03-12T04:44:02;100789.47;;;4.05;100.00
11440;BME280;5776;51.814;4.510;2023-03-12T04:46:28;100784.91;;;4.05;100.00
11440;BME280;5776;51.814;4.510;2023-03-12T04:48:54;100784.09;;;4.05;100.00
11440;BME280;5776;51.814;4.510;2023-03-12T04:51:20;100783.84;;;4.06;100.00
11440;BME280;5776;51.814;4.510;2023-03-12T04:53:46;100784.91;;;4.05;100.00
11440;BME280;5776;51.814;4.510;2023-03-12T04:56:12;100792.97;;;4.05;100.00
11440;BME280;5776;51.814;4.510;2023-03-12T04:58:38;100783.28;;;4.04;100.00
11440;BME280;5776;51.814;4.510;2023-03-12T05:01:04;100784.91;;;4.05;100.00
11440;BME280;5776;51.814;4.510;2023-03-12T05:03:30;100785.38;;;4.02;100.00
11440;BME280;5776;51.814;4.510;2023-03-12T05:05:57;100789.97;;;4.02;100.00
11440;BME280;5776;51.814;4.510;2023-03-12T05:08:23;100788.88;;;4.03;100.00
11440;BME280;5776;51.814;4.510;2023-03-12T05:10:49;100792.38;;;4.03;100.00
11440;BME280;5776;51.814;4.510;2023-03-12T05:13:20;100779.78;;;4.04;100.00
11440;BME280;5776;51.814;4.510;2023-03-12T05:15:46;100780.59;;;4.04;100.00
11440;BME280;5776;51.814;4.510;2023-03-12T05:18:15;100784.09;;;4.05;100.00
11440;BME280;5776;51.814;4.510;2023-03-12T05:20:42;100776.25;;;4.03;100.00
11440;BME280;5776;51.814;4.510;2023-03-12T05:23:08;100780.81;;;4.03;100.00
11440;BME280;5776;51.814;4.510;2023-03-12T05:25:38;100781.63;;;4.03;100.00
11440;BME280;5776;51.814;4.510;2023-03-12T05:28:04;100779.22;;;4.02;100.00
11440;BME280;5776;51.814;4.510;2023-03-12T05:30:29;100785.38;;;4.02;100.00
11440;BME280;5776;51.814;4.510;2023-03-12T05:32:55;100800.72;;;4.02;100.00
11440;BME280;5776;51.814;4.510;2023-03-12T05:35:21;100805.81;;;4.03;100.00
11440;BME280;5776;51.814;4.510;2023-03-12T05:37:47;100799.41;;;4.04;100.00
11440;BME280;5776;51.814;4.510;2023-03-12T05:40:13;100800.44;;;4.03;100.00
11440;BME280;5776;51.814;4.510;2023-03-12T05:42:39;100796.94;;;4.03;100.00
11440;BME280;5776;51.814;4.510;2023-03-12T05:45:05;100793.69;;;4.01;100.00
11440;BME280;5776;51.814;4.510;2023-03-12T05:47:32;100792.06;;;4.00;100.00
11440;BME280;5776;51.814;4.510;2023-03-12T05:49:58;100787.28;;;4.02;100.00
11440;BME280;5776;51.814;4.510;2023-03-12T05:52:23;100789.97;;;4.02;100.00
11440;BME280;5776;51.814;4.510;2023-03-12T05:54:51;100792.16;;;4.05;100.00
11440;BME280;5776;51.814;4.510;2023-03-12T05:57:17;100785.97;;;4.04;100.00
11440;BME280;5776;51.814;4.510;2023-03-12T05:59:43;100787.59;;;4.05;100.00
11440;BME280;5776;51.814;4.510;2023-03-12T06:02:09;100782.47;;;4.04;100.00
11440;BME280;5776;51.814;4.510;2023-03-12T06:04:35;100792.97;;;4.05;100.00
11440;BME280;5776;51.814;4.510;2023-03-12T06:07:01;100786.53;;;4.06;100.00
11440;BME280;5776;51.814;4.510;2023-03-12T06:09:27;100784.41;;;4.08;100.00
11440;BME280;5776;51.814;4.510;2023-03-12T06:11:53;100776.34;;;4.08;100.00
11440;BME280;5776;51.814;4.510;2023-03-12T06:14:19;100775.53;;;4.08;100.00
11440;BME280;5776;51.814;4.510;2023-03-12T06:16:45;100773.09;;;4.06;100.00
11440;BME280;5776;51.814;4.510;2023-03-12T06:19:11;100772.03;;;4.07;100.00
11440;BME280;5776;51.814;4.510;2023-03-12T06:21:38;100769.09;;;4.09;100.00
11440;BME280;5776;51.814;4.510;2023-03-12T06:24:05;100762.66;;;4.10;100.00
11440;BME280;5776;51.814;4.510;2023-03-12T06:26:31;100761.59;;;4.11;100.00
11440;BME280;5776;51.814;4.510;2023-03-12T06:28:57;100757.34;;;4.15;100.00
11440;BME280;5776;51.814;4.510;2023-03-12T06:31:23;100753.06;;;4.14;100.00
11440;BME280;5776;51.814;4.510;2023-03-12T06:33:49;100752.47;;;4.12;100.00
11440;BME280;5776;51.814;4.510;2023-03-12T06:36:16;100756.53;;;4.15;100.00
11440;BME280;5776;51.814;4.510;2023-03-12T06:38:42;100753.34;;;4.18;100.00
11440;BME280;5776;51.814;4.510;2023-03-12T06:41:11;100753.59;;;4.16;100.00
11440;BME280;5776;51.814;4.510;2023-03-12T06:43:38;100746.91;;;4.19;100.00
11440;BME280;5776;51.814;4.510;2023-03-12T06:46:06;100740.78;;;4.23;100.00
11440;BME280;5776;51.814;4.510;2023-03-12T06:48:33;100747.25;;;4.22;100.00
11440;BME280;5776;51.814;4.510;2023-03-12T06:51:04;100754.16;;;4.18;100.00
11440;BME280;5776;51.814;4.510;2023-03-12T06:53:31;100746.44;;;4.22;100.00
11440;BME280;5776;51.814;4.510;2023-03-12T06:55:57;100738.91;;;4.24;100.00
11440;BME280;5776;51.814;4.510;2023-03-12T06:58:23;100735.19;;;4.25;100.00
11440;BME280;5776;51.814;4.510;2023-03-12T07:00:49;100742.06;;;4.38;100.00
11440;BME280;5776;51.814;4.510;2023-03-12T07:03:15;100752.75;;;4.32;100.00
11440;BME280;5776;51.814;4.510;2023-03-12T07:05:46;100758.44;;;4.36;100.00
11440;BME280;5776;51.814;4.510;2023-03-12T07:08:12;100752.03;;;4.37;100.00
11440;BME280;5776;51.814;4.510;2023-03-12T07:10:38;100741.50;;;4.36;100.00
11440;BME280;5776;51.814;4.510;2023-03-12T07:13:04;100749.56;;;4.36;100.00
11440;BME280;5776;51.814;4.510;2023-03-12T07:15:30;100756.81;;;4.35;100.00
11440;BME280;5776;51.814;4.510;2023-03-12T07:18:00;100748.25;;;4.38;100.00
11440;BME280;5776;51.814;4.510;2023-03-12T07:20:26;100745.91;;;4.42;100.00
11440;BME280;5776;51.814;4.510;2023-03-12T07:22:51;100742.94;;;4.43;100.00
11440;BME280;5776;51.814;4.510;2023-03-12T07:25:17;100734.06;;;4.43;100.00
11440;BME280;5776;51.814;4.510;2023-03-12T07:27:43;100734.06;;;4.43;100.00
11440;BME280;5776;51.814;4.510;2023-03-12T07:30:11;100740.00;;;4.45;100.00
11440;BME280;5776;51.814;4.510;2023-03-12T07:32:37;100736.00;;;4.47;100.00
11440;BME280;5776;51.814;4.510;2023-03-12T07:35:04;100743.34;;;4.52;100.00
11440;BME280;5776;51.814;4.510;2023-03-12T07:37:29;100749.53;;;4.52;100.00
11440;BME280;5776;51.814;4.510;2023-03-12T07:39:55;100746.84;;;4.52;100.00
11440;BME280;5776;51.814;4.510;2023-03-12T07:42:21;100750.59;;;4.51;100.00
11440;BME280;5776;51.814;4.510;2023-03-12T07:44:47;100743.41;;;4.57;100.00
11440;BME280;5776;51.814;4.510;2023-03-12T07:47:13;100744.72;;;4.54;100.00
11440;BME280;5776;51.814;4.510;2023-03-12T07:49:39;100755.53;;;4.60;100.00
11440;BME280;5776;51.814;4.510;2023-03-12T07:52:07;100751.78;;;4.61;100.00
11440;BME280;5776;51.814;4.510;2023-03-12T07:54:36;100757.97;;;4.61;100.00
11440;BME280;5776;51.814;4.510;2023-03-12T07:57:03;100756.91;;;4.62;100.00
11440;BME280;5776;51.814;4.510;2023-03-12T07:59:29;100750.97;;;4.60;100.00
11440;BME280;5776;51.814;4.510;2023-03-12T08:01:54;100755.53;;;4.60;100.00
11440;BME280;5776;51.814;4.510;2023-03-12T08:04:20;100758.28;;;4.65;100.00
11440;BME280;5776;51.814;4.510;2023-03-12T08:06:46;100766.94;;;4.67;100.00
11440;BME280;5776;51.814;4.510;2023-03-12T08:09:12;100763.41;;;4.66;100.00
11440;BME280;5776;51.814;4.510;2023-03-12T08:11:37;100755.09;;;4.68;100.00
11440;BME280;5776;51.814;4.510;2023-03-12T08:14:04;100763.16;;;4.68;100.00
11440;BME280;5776;51.814;4.510;2023-03-12T08:16:30;100768.53;;;4.68;100.00
11440;BME280;5776;51.814;4.510;2023-03-12T08:18:56;100769.13;;;4.70;100.00
11440;BME280;5776;51.814;4.510;2023-03-12T08:21:22;100767.22;;;4.70;100.00
11440;BME280;5776;51.814;4.510;2023-03-12T08:23:48;100780.44;;;4.72;100.00
11440;BME280;5776;51.814;4.510;2023-03-12T08:26:14;100786.13;;;4.75;100.00
11440;BME280;5776;51.814;4.510;2023-03-12T08:28:40;100784.75;;;4.73;100.00
11440;BME280;5776;51.814;4.510;2023-03-12T08:31:06;100789.06;;;4.74;100.00
11440;BME280;5776;51.814;4.510;2023-03-12T08:33:34;100796.66;;;4.77;100.00
11440;BME280;5776;51.814;4.510;2023-03-12T08:36:00;100790.69;;;4.75;100.00
11440;BME280;5776;51.814;4.510;2023-03-12T08:38:26;100810.09;;;4.77;100.00
11440;BME280;5776;51.814;4.510;2023-03-12T08:40:59;100799.63;;;4.81;100.00
11440;BME280;5776;51.814;4.510;2023-03-12T08:43:26;100807.53;;;4.87;100.00
11440;BME280;5776;51.814;4.510;2023-03-12T08:46:00;100805.88;;;4.86;100.00
11440;BME280;5776;51.814;4.510;2023-03-12T08:48:28;100806.16;;;4.85;100.00
11440;BME280;5776;51.814;4.510;2023-03-12T08:50:58;100804.28;;;4.85;100.00
11440;BME280;5776;51.814;4.510;2023-03-12T08:53:25;100804.03;;;4.87;100.00
11440;BME280;5776;51.814;4.510;2023-03-12T08:55:52;100809.41;;;4.87;100.00
11440;BME280;5776;51.814;4.510;2023-03-12T08:58:19;100796.78;;;4.87;100.00
11440;BME280;5776;51.814;4.510;2023-03-12T09:00:45;100808.63;;;4.91;100.00
11440;BME280;5776;51.814;4.510;2023-03-12T09:03:11;100797.06;;;4.91;100.00
11440;BME280;5776;51.814;4.510;2023-03-12T09:05:40;100803.81;;;4.93;100.00
11440;BME280;5776;51.814;4.510;2023-03-12T09:08:07;100800.63;;;4.96;100.00
11440;BME280;5776;51.814;4.510;2023-03-12T09:10:34;100795.56;;;5.00;100.00
11440;BME280;5776;51.814;4.510;2023-03-12T09:13:01;100800.16;;;5.00;100.00
11440;BME280;5776;51.814;4.510;2023-03-12T09:15:27;100801.75;;;5.01;100.00
11440;BME280;5776;51.814;4.510;2023-03-12T09:17:53;100813.09;;;5.03;100.00
11440;BME280;5776;51.814;4.510;2023-03-12T09:20:21;100814.47;;;5.05;100.00
11440;BME280;5776;51.814;4.510;2023-03-12T09:22:47;100817.97;;;5.06;100.00
11440;BME280;5776;51.814;4.510;2023-03-12T09:25:14;100821.22;;;5.08;100.00
11440;BME280;5776;51.814;4.510;2023-03-12T09:27:45;100825.59;;;5.14;100.00
11440;BME280;5776;51.814;4.510;2023-03-12T09:30:14;100826.72;;;5.18;100.00
11440;BME280;5776;51.814;4.510;2023-03-12T09:32:40;100834.25;;;5.16;100.00
11440;BME280;5776;51.814;4.510;2023-03-12T09:35:07;100824.03;;;5.18;100.00
11440;BME280;5776;51.814;4.510;2023-03-12T09:37:33;100829.44;;;5.18;100.00
11440;BME280;5776;51.814;4.510;2023-03-12T09:40:00;100840.19;;;5.18;100.00
11440;BME280;5776;51.814;4.510;2023-03-12T09:45:02;100842.94;;;5.23;100.00
11440;BME280;5776;51.814;4.510;2023-03-12T09:47:36;100840.25;;;5.23;100.00
11440;BME280;5776;51.814;4.510;2023-03-12T09:50:14;100842.44;;;5.26;100.00
11440;BME280;5776;51.814;4.510;2023-03-12T09:52:48;100848.38;;;5.28;100.00
11440;BME280;5776;51.814;4.510;2023-03-12T09:55:18;100846.81;;;5.32;100.00
11440;BME280;5776;51.814;4.510;2023-03-12T09:57:46;100847.13;;;5.36;100.00
11440;BME280;5776;51.814;4.510;2023-03-12T10:00:26;100839.38;;;5.39;100.00
11440;BME280;5776;51.814;4.510;2023-03-12T10:11:43;100855.63;;;5.50;100.00
11440;BME280;5776;51.814;4.510;2023-03-12T10:17:05;100845.72;;;5.55;100.00
11440;BME280;5776;51.814;4.510;2023-03-12T10:19:58;100836.81;;;5.55;100.00
11440;BME280;5776;51.814;4.510;2023-03-12T10:28:18;100825.59;;;5.63;100.00
11440;BME280;5776;51.814;4.510;2023-03-12T10:30:51;100829.66;;;5.66;100.00
11440;BME280;5776;51.814;4.510;2023-03-12T10:33:19;100826.19;;;5.70;100.00
11440;BME280;5776;51.814;4.510;2023-03-12T10:35:46;100839.16;;;5.73;100.00
11440;BME280;5776;51.814;4.510;2023-03-12T10:38:16;100837.34;;;5.84;100.00
11440;BME280;5776;51.814;4.510;2023-03-12T10:40:44;100834.94;;;5.82;100.00
11440;BME280;5776;51.814;4.510;2023-03-12T10:43:10;100830.00;;;5.74;100.00
11440;BME280;5776;51.814;4.510;2023-03-12T10:45:44;100838.03;;;5.69;100.00
11440;BME280;5776;51.814;4.510;2023-03-12T10:48:23;100843.13;;;5.66;100.00
11440;BME280;5776;51.814;4.510;2023-03-12T10:51:09;100847.69;;;5.65;100.00
11440;BME280;5776;51.814;4.510;2023-03-12T10:53:40;100842.56;;;5.63;100.00
11440;BME280;5776;51.814;4.510;2023-03-12T10:56:12;100850.41;;;5.65;100.00
11440;BME280;5776;51.814;4.510;2023-03-12T10:58:39;100851.22;;;5.66;100.00
11440;BME280;5776;51.814;4.510;2023-03-12T11:01:26;100854.13;;;5.64;100.00
11440;BME280;5776;51.814;4.510;2023-03-12T11:03:53;100864.97;;;5.69;100.00
11440;BME280;5776;51.814;4.510;2023-03-12T11:06:32;100859.53;;;5.91;100.00
11440;BME280;5776;51.814;4.510;2023-03-12T11:09:18;100875.53;;;5.98;100.00
11440;BME280;5776;51.814;4.510;2023-03-12T11:11:46;100873.28;;;5.90;100.00
11440;BME280;5776;51.814;4.510;2023-03-12T11:14:19;100869.75;;;5.89;100.00
11440;BME280;5776;51.814;4.510;2023-03-12T11:16:46;100872.16;;;5.85;100.00
11440;BME280;5776;51.814;4.510;2023-03-12T11:19:14;100872.72;;;5.88;100.00
11440;BME280;5776;51.814;4.510;2023-03-12T11:22:03;100870.06;;;5.93;100.00
11440;BME280;5776;51.814;4.510;2023-03-12T11:24:30;100879.19;;;5.92;100.00
11440;BME280;5776;51.814;4.510;2023-03-12T11:27:06;100867.69;;;5.96;100.00
11440;BME280;5776;51.814;4.510;2023-03-12T11:29:38;100867.97;;;5.95;100.00
11440;BME280;5776;51.814;4.510;2023-03-12T11:32:23;100862.56;;;5.95;100.00
11440;BME280;5776;51.814;4.510;2023-03-12T11:34:50;100875.78;;;5.96;100.00
11440;BME280;5776;51.814;4.510;2023-03-12T12:04:34;100836.59;;;6.21;100.00
11440;BME280;5776;51.814;4.510;2023-03-12T12:10:12;100838.00;;;6.28;100.00
11440;BME280;5776;51.814;4.510;2023-03-12T12:16:18;100841.03;;;6.32;100.00
11440;BME280;5776;51.814;4.510;2023-03-12T12:27:17;100839.13;;;6.33;100.00
11440;BME280;5776;51.814;4.510;2023-03-12T12:35:24;100828.63;;;6.36;100.00
11440;BME280;5776;51.814;4.510;2023-03-12T12:40:26;100813.25;;;6.42;100.00
11440;BME280;5776;51.814;4.510;2023-03-12T12:45:40;100812.78;;;6.45;100.00
11440;BME280;5776;51.814;4.510;2023-03-12T12:51:00;100811.69;;;6.46;100.00
11440;BME280;5776;51.814;4.510;2023-03-12T13:01:09;100787.47;;;6.61;100.00
11440;BME280;5776;51.814;4.510;2023-03-12T13:03:36;100782.97;;;6.77;100.00
11440;BME280;5776;51.814;4.510;2023-03-12T13:06:04;100791.88;;;6.73;100.00
11440;BME280;5776;51.814;4.510;2023-03-12T13:13:48;100780.50;;;6.65;100.00
11440;BME280;5776;51.814;4.510;2023-03-12T13:24:21;100781.84;;;6.68;100.00
11440;BME280;5776;51.814;4.510;2023-03-12T13:31:56;100796.72;;;6.70;100.00
11440;BME280;5776;51.814;4.510;2023-03-12T13:36:57;100811.84;;;6.82;100.00
11440;BME280;5776;51.814;4.510;2023-03-12T13:39:28;100805.44;;;6.93;100.00
11440;BME280;5776;51.814;4.510;2023-03-12T13:41:55;100798.41;;;6.92;100.00
11440;BME280;5776;51.814;4.510;2023-03-12T13:58:09;100834.34;;;6.92;100.00
11440;BME280;5776;51.814;4.510;2023-03-12T14:00:45;100833.25;;;6.93;100.00
11440;BME280;5776;51.814;4.510;2023-03-12T14:05:52;100843.69;;;7.38;100.00
11440;BME280;5776;51.814;4.510;2023-03-12T14:16:43;100829.13;;;7.59;100.00
11440;BME280;5776;51.814;4.510;2023-03-12T14:19:38;100835.84;;;7.41;100.00
11440;BME280;5776;51.814;4.510;2023-03-12T14:22:06;100829.84;;;7.29;100.00
11440;BME280;5776;51.814;4.510;2023-03-12T14:24:37;100827.69;;;7.26;100.00
11440;BME280;5776;51.814;4.510;2023-03-12T14:27:12;100828.22;;;7.23;100.00
11440;BME280;5776;51.814;4.510;2023-03-12T14:30:06;100821.75;;;7.24;100.00
11440;BME280;5776;51.814;4.510;2023-03-12T14:32:35;100833.34;;;7.24;100.00
11440;BME280;5776;51.814;4.510;2023-03-12T14:35:22;100825.00;;;7.26;100.00
11440;BME280;5776;51.814;4.510;2023-03-12T14:37:53;100815.03;;;7.42;100.00
11440;BME280;5776;51.814;4.510;2023-03-12T14:40:24;100820.16;;;7.38;100.00
11440;BME280;5776;51.814;4.510;2023-03-12T14:42:58;100813.09;;;7.32;100.00
11440;BME280;5776;51.814;4.510;2023-03-12T14:45:24;100822.31;;;7.31;100.00
11440;BME280;5776;51.814;4.510;2023-03-12T14:47:55;100827.16;;;7.29;100.00
11440;BME280;5776;51.814;4.510;2023-03-12T14:52:49;100818.00;;;7.30;100.00
11440;BME280;5776;51.814;4.510;2023-03-12T14:55:21;100822.31;;;7.31;100.00
11440;BME280;5776;51.814;4.510;2023-03-12T14:57:48;100826.91;;;7.30;100.00
11440;BME280;5776;51.814;4.510;2023-03-12T15:00:26;100829.59;;;7.30;100.00
11440;BME280;5776;51.814;4.510;2023-03-12T15:02:54;100815.81;;;7.32;100.00
11440;BME280;5776;51.814;4.510;2023-03-12T15:05:21;100823.09;;;7.31;100.00
11440;BME280;5776;51.814;4.510;2023-03-12T15:07:49;100808.53;;;7.32;100.00
11440;BME280;5776;51.814;4.510;2023-03-12T15:10:22;100809.34;;;7.33;100.00
11440;BME280;5776;51.814;4.510;2023-03-12T15:12:50;100816.38;;;7.34;100.00
11440;BME280;5776;51.814;4.510;2023-03-12T15:15:42;100814.47;;;7.34;100.00
11440;BME280;5776;51.814;4.510;2023-03-12T15:18:17;100805.84;;;7.38;100.00
11440;BME280;5776;51.814;4.510;2023-03-12T15:20:48;100811.25;;;7.38;100.00
11440;BME280;5776;51.814;4.510;2023-03-12T15:23:16;100827.19;;;7.39;100.00
11440;BME280;5776;51.814;4.510;2023-03-12T15:25:43;100813.66;;;7.39;100.00
11440;BME280;5776;51.814;4.510;2023-03-12T15:30:36;100799.91;;;7.41;100.00